Prudentia — PB4900 — position and weather

sailwx.info

Track history (hours):
 
Tides and Currents Weather Stations Pressure Air Temp Water Temp Dewpoint Dewpoint Depression Visibility Wind Speed Wind Dir Waves Ship Positions

Prudentia

Last reported at 2015-Aug-23 08:15 UTC. Time now 2015-Aug-27 20:47 UTC.
Position N 52°51' E 005°40'.

Length 70 m; draft 1.8 m.

Type: Ship. MMSI: 244660779.

Date/timePositionNaut miles runAvg speedWind from/ knotsBaromVisibWave heightAir tempDewpointWater temp
2015-Aug-23 08:15N 52°51' E 005°40'5 6.5
2015-Aug-23 07:33N 52°47' E 005°36'7 6.8
2015-Aug-23 06:33N 52°40' E 005°33'7 6.6
2015-Aug-23 05:33N 52°36' E 005°41'7 7.0
2015-Aug-23 04:33N 52°35' E 005°53'1 1.4
2015-Aug-23 03:33N 52°34' E 005°55'0 0.0
2015-Aug-23 02:33N 52°34' E 005°55'0 0.0
2015-Aug-23 01:33N 52°34' E 005°55'0 0.0
2015-Aug-23 00:33N 52°34' E 005°55'0 0.0
2015-Aug-22 23:33N 52°34' E 005°55'0 0.0
2015-Aug-22 22:33N 52°34' E 005°55'0 0.0
2015-Aug-22 21:33N 52°34' E 005°55'0 0.0
2015-Aug-22 20:33N 52°34' E 005°55'2 1.9
2015-Aug-22 19:33N 52°32' E 005°56'5 5.4
2015-Aug-22 18:33N 52°29' E 006°04'7 6.9
2015-Aug-22 17:33N 52°23' E 006°07'11 5.8
2015-Aug-22 15:33N 52°11' E 006°10'21 1.7
2015-Aug-22 03:16N 51°51' E 006°08'2 2.0
2015-Aug-22 02:19N 51°51' E 006°05'0 0.0
2015-Aug-22 01:29N 51°51' E 006°05'9 0.5
2015-Aug-21 08:27N 51°51' E 005°51'3 3.2
2015-Aug-21 07:29N 51°48' E 005°49'9 7.1
2015-Aug-21 06:10N 51°41' E 005°58'0 0.3
2015-Aug-21 05:33N 51°41' E 005°58'0 0.0
2015-Aug-21 04:30N 51°41' E 005°58'0 0.0
2015-Aug-21 03:31N 51°41' E 005°58'0 0.0
2015-Aug-21 02:33N 51°41' E 005°58'0 0.0
2015-Aug-21 01:33N 51°41' E 005°58'0 0.0
2015-Aug-21 00:32N 51°41' E 005°58'0 0.0
2015-Aug-20 07:21N 51°41' E 005°58'0 0.0
2015-Aug-20 06:30N 51°41' E 005°58'  
2015-Aug-17 18:28N 51°48' E 005°50'4 0.3
2015-Aug-17 06:23N 51°51' E 005°52'2 2.0
2015-Aug-17 05:23N 51°51' E 005°49'0 0.0
2015-Aug-16 10:18N 51°51' E 005°49'0 0.0
2015-Aug-16 09:32N 51°51' E 005°49'0 0.0
2015-Aug-16 08:32N 51°51' E 005°49'0 0.0
2015-Aug-16 07:32N 51°51' E 005°49'0 0.0
2015-Aug-16 06:33N 51°51' E 005°49'0 0.0
2015-Aug-16 05:29N 51°51' E 005°49'0 0.0
2015-Aug-16 04:31N 51°51' E 005°49'0 0.0
2015-Aug-16 03:31N 51°51' E 005°49'0 0.0
2015-Aug-16 02:32N 51°51' E 005°49'0 0.0
2015-Aug-16 01:30N 51°51' E 005°49'0 0.0
2015-Aug-16 00:29N 51°51' E 005°49'0 0.0
2015-Aug-15 23:31N 51°51' E 005°49'0 0.0
2015-Aug-15 21:17N 51°51' E 005°49'0 0.0
2015-Aug-15 20:20N 51°51' E 005°49'0 0.0
2015-Aug-15 19:28N 51°51' E 005°49'0 0.0
2015-Aug-15 18:25N 51°51' E 005°49'0 0.0
2015-Aug-15 17:11N 51°51' E 005°49'0 0.0
2015-Aug-15 16:24N 51°51' E 005°49'0 0.0
2015-Aug-15 14:24N 51°51' E 005°49'0 0.0
2015-Aug-15 13:33N 51°51' E 005°49'0 0.0
2015-Aug-15 12:10N 51°51' E 005°49'0 0.0
2015-Aug-15 11:24N 51°51' E 005°49'0 0.0
2015-Aug-15 08:04N 51°51' E 005°49'0 0.0
2015-Aug-15 07:29N 51°51' E 005°49'0 0.0
2015-Aug-15 06:06N 51°51' E 005°49'0 0.0
2015-Aug-15 05:30N 51°51' E 005°49'0 0.0
2015-Aug-15 04:27N 51°51' E 005°49'0 0.0
2015-Aug-15 03:31N 51°51' E 005°49'0 0.0
2015-Aug-15 02:32N 51°51' E 005°49'0 0.0
2015-Aug-15 01:27N 51°51' E 005°49'0 0.0
2015-Aug-15 00:31N 51°51' E 005°49'0 0.0
2015-Aug-14 23:32N 51°51' E 005°49'0 0.0
2015-Aug-14 22:32N 51°51' E 005°49'0 0.0
2015-Aug-14 21:31N 51°51' E 005°49'0 0.0
2015-Aug-14 20:14N 51°51' E 005°49'0 0.0
2015-Aug-14 19:27N 51°51' E 005°49'0 0.0
2015-Aug-14 17:09N 51°51' E 005°49'0 0.0
2015-Aug-14 16:32N 51°51' E 005°49'0 0.0
2015-Aug-14 15:32N 51°51' E 005°49'0 0.0
2015-Aug-14 14:31N 51°51' E 005°49'0 0.0
2015-Aug-14 13:17N 51°51' E 005°49'0 0.0
2015-Aug-14 12:33N 51°51' E 005°49'0 0.0
2015-Aug-14 11:07N 51°51' E 005°49'0 0.0
2015-Aug-14 10:31N 51°51' E 005°49'0 0.0
2015-Aug-14 09:25N 51°51' E 005°49'0 0.0
2015-Aug-14 08:31N 51°51' E 005°49'0 0.0
2015-Aug-14 06:32N 51°51' E 005°49'0 0.0
2015-Aug-14 05:33N 51°51' E 005°49'0 0.0
2015-Aug-14 04:29N 51°51' E 005°49'0 0.0
2015-Aug-14 03:33N 51°51' E 005°49'0 0.0
2015-Aug-14 02:33N 51°51' E 005°49'0 0.0
2015-Aug-14 01:26N 51°51' E 005°49'0 0.0
2015-Aug-14 00:32N 51°51' E 005°49'0 0.0
2015-Aug-13 23:33N 51°51' E 005°49'0 0.0
2015-Aug-13 22:29N 51°51' E 005°49'0 0.0
2015-Aug-13 21:30N 51°51' E 005°49'0 0.0
2015-Aug-13 20:04N 51°51' E 005°49'0 0.0
2015-Aug-13 19:33N 51°51' E 005°49'0 0.0
2015-Aug-13 17:31N 51°51' E 005°49'8 3.3
2015-Aug-13 15:05N 51°57' E 005°58'17 3.0
2015-Aug-13 09:18N 52°10' E 006°16'4 5.5
2015-Aug-13 08:33N 52°10' E 006°22'  
Track history (hours):
 
Tides and Currents Weather Stations Pressure Air Temp Water Temp Dewpoint Dewpoint Depression Visibility Wind Speed Wind Dir Waves Ship Positions

Prudentia

Last reported at 2015-Aug-23 08:15 UTC. Time now 2015-Aug-27 20:47 UTC.
Position N 52°51' E 005°40'.

Length 70 m; draft 1.8 m.

Type: Ship. MMSI: 244660779.

Date/timePositionNaut miles runAvg speedWind from/ knotsBaromVisibWave heightAir tempDewpointWater temp
2015-Aug-23 08:15N 52°51' E 005°40'5 6.5
2015-Aug-23 07:33N 52°47' E 005°36'7 6.8
2015-Aug-23 06:33N 52°40' E 005°33'7 6.6
2015-Aug-23 05:33N 52°36' E 005°41'7 7.0
2015-Aug-23 04:33N 52°35' E 005°53'1 1.4
2015-Aug-23 03:33N 52°34' E 005°55'0 0.0
2015-Aug-23 02:33N 52°34' E 005°55'0 0.0
2015-Aug-23 01:33N 52°34' E 005°55'0 0.0
2015-Aug-23 00:33N 52°34' E 005°55'0 0.0
2015-Aug-22 23:33N 52°34' E 005°55'0 0.0
2015-Aug-22 22:33N 52°34' E 005°55'0 0.0
2015-Aug-22 21:33N 52°34' E 005°55'0 0.0
2015-Aug-22 20:33N 52°34' E 005°55'2 1.9
2015-Aug-22 19:33N 52°32' E 005°56'5 5.4
2015-Aug-22 18:33N 52°29' E 006°04'7 6.9
2015-Aug-22 17:33N 52°23' E 006°07'11 5.8
2015-Aug-22 15:33N 52°11' E 006°10'21 1.7
2015-Aug-22 03:16N 51°51' E 006°08'2 2.0
2015-Aug-22 02:19N 51°51' E 006°05'0 0.0
2015-Aug-22 01:29N 51°51' E 006°05'9 0.5
2015-Aug-21 08:27N 51°51' E 005°51'3 3.2
2015-Aug-21 07:29N 51°48' E 005°49'9 7.1
2015-Aug-21 06:10N 51°41' E 005°58'0 0.3
2015-Aug-21 05:33N 51°41' E 005°58'0 0.0
2015-Aug-21 04:30N 51°41' E 005°58'0 0.0
2015-Aug-21 03:31N 51°41' E 005°58'0 0.0
2015-Aug-21 02:33N 51°41' E 005°58'0 0.0
2015-Aug-21 01:33N 51°41' E 005°58'0 0.0
2015-Aug-21 00:32N 51°41' E 005°58'0 0.0
2015-Aug-20 07:21N 51°41' E 005°58'0 0.0
2015-Aug-20 06:30N 51°41' E 005°58'  
2015-Aug-17 18:28N 51°48' E 005°50'4 0.3
2015-Aug-17 06:23N 51°51' E 005°52'2 2.0
2015-Aug-17 05:23N 51°51' E 005°49'0 0.0
2015-Aug-16 10:18N 51°51' E 005°49'0 0.0
2015-Aug-16 09:32N 51°51' E 005°49'0 0.0
2015-Aug-16 08:32N 51°51' E 005°49'0 0.0
2015-Aug-16 07:32N 51°51' E 005°49'0 0.0
2015-Aug-16 06:33N 51°51' E 005°49'0 0.0
2015-Aug-16 05:29N 51°51' E 005°49'0 0.0
2015-Aug-16 04:31N 51°51' E 005°49'0 0.0
2015-Aug-16 03:31N 51°51' E 005°49'0 0.0
2015-Aug-16 02:32N 51°51' E 005°49'0 0.0
2015-Aug-16 01:30N 51°51' E 005°49'0 0.0
2015-Aug-16 00:29N 51°51' E 005°49'0 0.0
2015-Aug-15 23:31N 51°51' E 005°49'0 0.0
2015-Aug-15 21:17N 51°51' E 005°49'0 0.0
2015-Aug-15 20:20N 51°51' E 005°49'0 0.0
2015-Aug-15 19:28N 51°51' E 005°49'0 0.0
2015-Aug-15 18:25N 51°51' E 005°49'0 0.0
2015-Aug-15 17:11N 51°51' E 005°49'0 0.0
2015-Aug-15 16:24N 51°51' E 005°49'0 0.0
2015-Aug-15 14:24N 51°51' E 005°49'0 0.0
2015-Aug-15 13:33N 51°51' E 005°49'0 0.0
2015-Aug-15 12:10N 51°51' E 005°49'0 0.0
2015-Aug-15 11:24N 51°51' E 005°49'0 0.0
2015-Aug-15 08:04N 51°51' E 005°49'0 0.0
2015-Aug-15 07:29N 51°51' E 005°49'0 0.0
2015-Aug-15 06:06N 51°51' E 005°49'0 0.0
2015-Aug-15 05:30N 51°51' E 005°49'0 0.0
2015-Aug-15 04:27N 51°51' E 005°49'0 0.0
2015-Aug-15 03:31N 51°51' E 005°49'0 0.0
2015-Aug-15 02:32N 51°51' E 005°49'0 0.0
2015-Aug-15 01:27N 51°51' E 005°49'0 0.0
2015-Aug-15 00:31N 51°51' E 005°49'0 0.0
2015-Aug-14 23:32N 51°51' E 005°49'0 0.0
2015-Aug-14 22:32N 51°51' E 005°49'0 0.0
2015-Aug-14 21:31N 51°51' E 005°49'0 0.0
2015-Aug-14 20:14N 51°51' E 005°49'0 0.0
2015-Aug-14 19:27N 51°51' E 005°49'0 0.0
2015-Aug-14 17:09N 51°51' E 005°49'0 0.0
2015-Aug-14 16:32N 51°51' E 005°49'0 0.0
2015-Aug-14 15:32N 51°51' E 005°49'0 0.0
2015-Aug-14 14:31N 51°51' E 005°49'0 0.0
2015-Aug-14 13:17N 51°51' E 005°49'0 0.0
2015-Aug-14 12:33N 51°51' E 005°49'0 0.0
2015-Aug-14 11:07N 51°51' E 005°49'0 0.0
2015-Aug-14 10:31N 51°51' E 005°49'0 0.0
2015-Aug-14 09:25N 51°51' E 005°49'0 0.0
2015-Aug-14 08:31N 51°51' E 005°49'0 0.0
2015-Aug-14 06:32N 51°51' E 005°49'0 0.0
2015-Aug-14 05:33N 51°51' E 005°49'0 0.0
2015-Aug-14 04:29N 51°51' E 005°49'0 0.0
2015-Aug-14 03:33N 51°51' E 005°49'0 0.0
2015-Aug-14 02:33N 51°51' E 005°49'0 0.0
2015-Aug-14 01:26N 51°51' E 005°49'0 0.0
2015-Aug-14 00:32N 51°51' E 005°49'0 0.0
2015-Aug-13 23:33N 51°51' E 005°49'0 0.0
2015-Aug-13 22:29N 51°51' E 005°49'0 0.0
2015-Aug-13 21:30N 51°51' E 005°49'0 0.0
2015-Aug-13 20:04N 51°51' E 005°49'0 0.0
2015-Aug-13 19:33N 51°51' E 005°49'0 0.0
2015-Aug-13 17:31N 51°51' E 005°49'8 3.3
2015-Aug-13 15:05N 51°57' E 005°58'17 3.0
2015-Aug-13 09:18N 52°10' E 006°16'4 5.5
2015-Aug-13 08:33N 52°10' E 006°22'  

Dump ship's entire track history